createdAt,value
2022-12-08T00:01:35.660Z,17.05
2022-12-08T00:05:01.817Z,17.38
2022-12-08T00:08:25.503Z,17.18
2022-12-08T00:11:31.192Z,16.87
2022-12-08T00:14:40.615Z,17.13
2022-12-08T00:17:46.023Z,17.54
2022-12-08T00:20:58.684Z,17.51
2022-12-08T00:24:07.045Z,17.91
2022-12-08T00:27:16.685Z,17.38
2022-12-08T00:30:22.374Z,17.74
2022-12-08T00:33:31.468Z,17.29
2022-12-08T00:36:38.091Z,17.43
2022-12-08T00:39:48.358Z,16.55
2022-12-08T00:42:53.915Z,16.85
2022-12-08T00:46:00.264Z,17.19
2022-12-08T00:49:06.883Z,16.64
2022-12-08T00:52:13.523Z,16.42
2022-12-08T00:55:21.558Z,16.22
2022-12-08T00:58:27.905Z,16.11
2022-12-08T01:01:34.033Z,16.37
2022-12-08T01:04:41.996Z,16.32
2022-12-08T01:07:49.155Z,16.10
2022-12-08T01:10:57.987Z,15.88
2022-12-08T01:14:03.790Z,16.04
2022-12-08T01:17:11.433Z,15.70
2022-12-08T01:20:17.091Z,15.76
2022-12-08T01:23:23.996Z,16.07
2022-12-08T01:26:32.121Z,15.80
2022-12-08T01:29:38.650Z,16.59
2022-12-08T01:32:44.161Z,16.90
2022-12-08T01:35:51.656Z,16.09
2022-12-08T01:39:00.561Z,15.92
2022-12-08T01:42:10.010Z,15.51
2022-12-08T01:45:25.333Z,16.38
2022-12-08T01:48:31.797Z,16.04
2022-12-08T01:51:48.684Z,15.83
2022-12-08T01:55:00.951Z,15.51
2022-12-08T01:58:19.706Z,16.10
2022-12-08T02:01:26.744Z,16.56
2022-12-08T02:04:32.396Z,15.96
2022-12-08T02:07:39.834Z,16.25
2022-12-08T02:10:47.093Z,16.37
2022-12-08T02:13:58.369Z,15.68
2022-12-08T02:17:23.834Z,16.20
2022-12-08T02:20:59.219Z,16.10
2022-12-08T02:24:23.433Z,15.77
2022-12-08T02:27:49.560Z,15.77
2022-12-08T02:31:20.652Z,16.31
2022-12-08T02:34:45.780Z,16.46
2022-12-08T02:38:06.559Z,16.09
2022-12-08T02:41:33.333Z,16.33
2022-12-08T02:44:48.818Z,16.34
2022-12-08T02:47:56.579Z,16.18
2022-12-08T02:51:04.644Z,15.58
2022-12-08T02:54:12.025Z,15.84
2022-12-08T02:57:41.200Z,15.95
2022-12-08T03:01:16.045Z,16.19
2022-12-08T03:04:41.188Z,16.90
2022-12-08T03:08:06.648Z,16.68
2022-12-08T03:11:23.141Z,17.08
2022-12-08T03:14:32.373Z,16.20
2022-12-08T03:17:44.231Z,16.56
2022-12-08T03:20:53.883Z,16.35
2022-12-08T03:24:08.823Z,16.14
2022-12-08T03:27:20.857Z,16.42
2022-12-08T03:30:26.448Z,16.11
2022-12-08T03:33:43.440Z,16.98
2022-12-08T03:36:49.287Z,17.06
2022-12-08T03:39:58.685Z,16.72
2022-12-08T03:43:04.546Z,17.49
2022-12-08T03:46:10.979Z,17.58
2022-12-08T03:49:16.625Z,17.88
2022-12-08T03:52:23.025Z,17.68
2022-12-08T03:55:31.103Z,17.94
2022-12-08T03:58:37.756Z,17.93
2022-12-08T04:01:43.219Z,17.89
2022-12-08T04:04:49.496Z,18.39
2022-12-08T04:08:01.347Z,19.18
2022-12-08T04:11:10.924Z,18.63
2022-12-08T04:14:16.639Z,19.31
2022-12-08T04:17:23.119Z,20.69
2022-12-08T04:20:28.621Z,20.03
2022-12-08T04:23:34.865Z,20.39
2022-12-08T04:26:42.952Z,20.27
2022-12-08T04:29:49.198Z,20.31
2022-12-08T04:32:57.093Z,19.61
2022-12-08T04:36:03.366Z,19.55
2022-12-08T04:39:22.595Z,20.32
2022-12-08T04:42:31.595Z,20.18
2022-12-08T04:45:37.289Z,20.43
2022-12-08T04:48:44.659Z,19.96
2022-12-08T04:51:50.165Z,19.51
2022-12-08T04:54:58.996Z,19.32
2022-12-08T04:58:07.310Z,20.36
2022-12-08T05:01:14.428Z,19.48
2022-12-08T05:04:20.051Z,19.25
2022-12-08T05:07:27.438Z,20.33
2022-12-08T05:10:33.052Z,20.12
2022-12-08T05:13:42.133Z,19.53
2022-12-08T05:16:48.673Z,19.54
2022-12-08T05:19:55.072Z,19.94
2022-12-08T05:23:00.654Z,19.02
2022-12-08T05:26:07.379Z,19.13
2022-12-08T05:29:15.464Z,19.15
2022-12-08T05:32:21.877Z,18.56
2022-12-08T05:35:27.329Z,19.51
2022-12-08T05:38:33.758Z,19.78
2022-12-08T05:41:39.209Z,20.87
2022-12-08T05:44:48.183Z,20.72
2022-12-08T05:47:55.589Z,22.12
2022-12-08T05:51:01.898Z,21.03
2022-12-08T05:54:07.641Z,21.62
2022-12-08T05:57:14.034Z,20.25
2022-12-08T06:00:24.827Z,21.58
2022-12-08T06:03:31.251Z,24.89
2022-12-08T06:06:38.993Z,22.11
2022-12-08T06:09:45.274Z,25.11
2022-12-08T06:12:50.781Z,21.77
2022-12-08T06:15:59.788Z,21.79
2022-12-08T06:19:05.212Z,20.93
2022-12-08T06:22:11.568Z,18.89
2022-12-08T06:25:17.014Z,20.36
2022-12-08T06:28:23.506Z,19.21
2022-12-08T06:31:31.666Z,19.56
2022-12-08T06:34:38.274Z,20.23
2022-12-08T06:37:43.809Z,20.33
2022-12-08T06:40:57.782Z,19.83
2022-12-08T06:44:03.303Z,21.60
2022-12-08T06:47:12.231Z,22.20
2022-12-08T06:50:18.009Z,24.52
2022-12-08T06:53:24.300Z,29.17
2022-12-08T06:56:30.315Z,24.18
2022-12-08T06:59:36.699Z,21.68
2022-12-08T07:02:45.906Z,21.00
2022-12-08T07:05:52.582Z,18.90
2022-12-08T07:08:58.128Z,21.44
2022-12-08T07:12:04.473Z,20.09
2022-12-08T07:15:12.395Z,20.86
2022-12-08T07:18:23.626Z,18.85
2022-12-08T07:21:29.166Z,17.84
2022-12-08T07:24:35.498Z,20.67
2022-12-08T07:27:40.974Z,18.49
2022-12-08T07:30:47.339Z,20.27
2022-12-08T07:33:57.167Z,29.22
2022-12-08T07:37:03.608Z,24.80
2022-12-08T07:40:12.856Z,30.79
2022-12-08T07:43:19.264Z,26.87
2022-12-08T07:46:27.495Z,30.13
2022-12-08T07:49:36.734Z,32.53
2022-12-08T07:52:42.219Z,24.71
2022-12-08T07:55:48.448Z,28.70
2022-12-08T07:58:54.137Z,31.74
2022-12-08T08:02:22.769Z,26.56
2022-12-08T08:05:28.673Z,28.92
2022-12-08T08:08:36.314Z,23.96
2022-12-08T08:11:41.791Z,26.50
2022-12-08T08:14:48.105Z,31.79
2022-12-08T08:17:54.287Z,27.50
2022-12-08T08:21:22.256Z,27.45
2022-12-08T08:24:28.766Z,23.04
2022-12-08T08:27:35.148Z,26.90
2022-12-08T08:30:40.750Z,26.48
2022-12-08T08:33:48.852Z,27.68
2022-12-08T08:36:57.016Z,27.48
2022-12-08T08:40:03.936Z,24.70
2022-12-08T08:43:34.299Z,25.20
2022-12-08T08:46:44.387Z,27.48
2022-12-08T08:49:49.994Z,25.58
2022-12-08T08:52:59.163Z,21.40
2022-12-08T08:56:05.256Z,23.07
2022-12-08T08:59:12.604Z,22.14
2022-12-08T09:02:22.145Z,22.54
2022-12-08T09:05:28.452Z,23.24
2022-12-08T09:08:36.482Z,23.94
2022-12-08T09:11:42.962Z,21.49
2022-12-08T09:14:48.651Z,21.14
2022-12-08T09:17:55.023Z,20.63
2022-12-08T09:21:06.411Z,19.81
2022-12-08T09:24:16.045Z,21.54
2022-12-08T09:27:21.853Z,22.48
2022-12-08T09:30:28.419Z,21.31
2022-12-08T09:33:34.211Z,20.86
2022-12-08T09:36:40.526Z,23.09
2022-12-08T09:39:49.483Z,22.31
2022-12-08T09:43:09.297Z,21.80
2022-12-08T09:46:21.099Z,21.51
2022-12-08T09:49:46.001Z,22.69
2022-12-08T09:53:05.036Z,24.58
2022-12-08T09:56:22.603Z,23.66
2022-12-08T09:59:34.893Z,20.62
2022-12-08T10:02:41.167Z,18.73
2022-12-08T10:05:58.890Z,17.82
2022-12-08T10:09:31.635Z,18.04
2022-12-08T10:12:54.033Z,31.14
2022-12-08T10:16:25.391Z,61.04
2022-12-08T10:19:38.114Z,52.84
2022-12-08T10:22:45.265Z,30.70
2022-12-08T10:25:56.941Z,22.57
2022-12-08T10:29:07.739Z,23.79
2022-12-08T10:32:22.947Z,20.87
2022-12-08T10:35:48.843Z,33.82
2022-12-08T10:38:54.414Z,27.24
2022-12-08T10:42:10.523Z,35.31
2022-12-08T10:45:29.547Z,23.20
2022-12-08T10:48:37.036Z,22.17
2022-12-08T10:51:45.296Z,21.94
2022-12-08T10:54:56.726Z,20.02
2022-12-08T10:58:02.290Z,20.35
2022-12-08T11:01:17.813Z,19.52
2022-12-08T11:04:38.375Z,18.92
2022-12-08T11:07:51.082Z,36.92
2022-12-08T11:10:56.988Z,31.28
2022-12-08T11:14:12.027Z,29.26
2022-12-08T11:17:29.790Z,35.16
2022-12-08T11:20:43.909Z,26.92
2022-12-08T11:23:53.316Z,27.91
2022-12-08T11:27:06.573Z,26.75
2022-12-08T11:30:21.484Z,34.22
2022-12-08T11:33:32.592Z,30.86
2022-12-08T11:36:41.109Z,24.96
2022-12-08T11:39:54.486Z,29.14
2022-12-08T11:43:17.511Z,23.76
2022-12-08T11:46:30.214Z,25.26
2022-12-08T11:49:44.373Z,29.59
2022-12-08T11:52:54.689Z,19.91
2022-12-08T11:56:09.588Z,43.43
2022-12-08T11:59:31.775Z,18.74
2022-12-08T12:02:49.165Z,21.98
2022-12-08T12:10:29.117Z,22.06
2022-12-08T12:14:05.432Z,26.75
2022-12-08T12:17:39.315Z,20.19
2022-12-08T12:21:00.078Z,41.89
2022-12-08T12:24:26.748Z,22.89
2022-12-08T12:27:43.830Z,20.84
2022-12-08T12:31:02.082Z,20.85
2022-12-08T12:34:19.312Z,20.84
2022-12-08T12:37:30.517Z,20.84
2022-12-08T12:40:45.457Z,63.46
2022-12-08T12:44:28.277Z,38.09
2022-12-08T12:47:56.688Z,71.87
2022-12-08T12:51:02.729Z,23.27
2022-12-08T12:54:25.960Z,37.73
2022-12-08T12:57:42.370Z,23.67
2022-12-08T13:00:49.920Z,20.97
2022-12-08T13:04:10.817Z,40.65
2022-12-08T13:07:25.641Z,57.54
2022-12-08T13:10:37.424Z,25.44
2022-12-08T13:14:03.371Z,41.29
2022-12-08T13:17:19.473Z,84.74
2022-12-08T13:20:29.118Z,61.25
2022-12-08T13:24:17.808Z,75.95
2022-12-08T13:27:37.882Z,31.93
2022-12-08T13:30:50.883Z,28.42
2022-12-08T13:38:48.896Z,48.20
2022-12-08T13:42:06.699Z,29.58
2022-12-08T13:45:59.210Z,25.50
2022-12-08T13:59:48.585Z,36.09
2022-12-08T14:03:02.430Z,29.45
2022-12-08T14:06:17.724Z,62.50
2022-12-08T14:09:28.214Z,42.23
2022-12-08T14:12:35.114Z,39.81
2022-12-08T14:15:43.240Z,156.45
2022-12-08T14:18:48.827Z,52.83
2022-12-08T14:22:01.962Z,38.62
2022-12-08T14:25:10.803Z,36.23
2022-12-08T14:28:17.179Z,36.51
2022-12-08T14:31:26.618Z,37.32
2022-12-08T14:34:39.786Z,41.07
2022-12-08T14:37:52.104Z,51.24
2022-12-08T14:41:08.879Z,84.68
2022-12-08T14:44:27.340Z,63.53
2022-12-08T14:47:36.359Z,61.62
2022-12-08T14:51:02.581Z,52.65
2022-12-08T14:54:18.148Z,56.72
2022-12-08T14:57:24.335Z,50.46
2022-12-08T15:00:32.028Z,44.03
2022-12-08T15:03:40.050Z,47.46
2022-12-08T15:06:56.407Z,51.64
2022-12-08T15:10:32.037Z,60.02
2022-12-08T15:13:38.345Z,45.48
2022-12-08T15:16:47.221Z,43.64
2022-12-08T15:19:59.291Z,42.39
2022-12-08T15:23:06.927Z,47.39
2022-12-08T15:26:25.268Z,39.80
2022-12-08T15:29:33.094Z,38.15
2022-12-08T15:32:39.400Z,37.79
2022-12-08T15:35:45.035Z,54.21
2022-12-08T15:38:51.435Z,45.05
2022-12-08T15:41:59.603Z,44.26
2022-12-08T15:45:06.571Z,53.16
2022-12-08T15:48:21.639Z,46.44
2022-12-08T15:51:27.932Z,48.05
2022-12-08T15:54:33.497Z,56.73
2022-12-08T15:58:31.216Z,73.55
2022-12-08T16:01:08.505Z,53.99
2022-12-08T16:05:06.385Z,46.12
2022-12-08T16:07:45.841Z,50.48
2022-12-08T16:11:34.475Z,48.67
2022-12-08T16:15:23.014Z,41.74
2022-12-08T16:17:45.909Z,84.75
2022-12-08T16:21:09.727Z,127.93
2022-12-08T16:24:18.583Z,124.20
2022-12-08T16:30:59.716Z,69.78
2022-12-08T16:34:05.447Z,83.04
2022-12-08T16:37:18.354Z,61.67
2022-12-08T16:40:24.221Z,62.79
2022-12-08T16:43:27.914Z,50.62
2022-12-08T16:46:37.654Z,45.69
2022-12-08T16:49:43.945Z,43.50
2022-12-08T16:52:53.048Z,48.14
2022-12-08T16:55:59.527Z,45.58
2022-12-08T16:59:05.594Z,50.81
2022-12-08T17:02:16.540Z,53.60
2022-12-08T17:05:25.140Z,58.71
2022-12-08T17:08:31.562Z,59.15
2022-12-08T17:11:42.973Z,51.28
2022-12-08T17:14:50.168Z,51.42
2022-12-08T17:17:59.708Z,63.15
2022-12-08T17:21:06.255Z,78.16
2022-12-08T17:24:14.604Z,73.44
2022-12-08T17:27:22.405Z,73.50
2022-12-08T17:30:27.938Z,77.16
2022-12-08T17:33:37.027Z,87.12
2022-12-08T17:36:43.048Z,94.96
2022-12-08T17:39:49.608Z,99.88
2022-12-08T17:42:55.114Z,82.05
2022-12-08T17:46:07.283Z,68.93
2022-12-08T17:49:21.832Z,67.63
2022-12-08T17:52:28.169Z,69.35
2022-12-08T17:55:33.643Z,54.03
2022-12-08T17:58:40.164Z,52.94
2022-12-08T18:01:46.235Z,52.10
2022-12-08T18:04:55.052Z,53.81
2022-12-08T18:08:01.453Z,61.81
2022-12-08T18:11:13.983Z,73.21
2022-12-08T18:14:20.155Z,64.66
2022-12-08T18:17:26.619Z,73.54
2022-12-08T18:20:35.018Z,75.85
2022-12-08T18:23:44.842Z,79.00
2022-12-08T18:26:52.427Z,80.85
2022-12-08T18:29:58.827Z,71.03
2022-12-08T18:33:07.237Z,67.19
2022-12-08T18:36:20.972Z,65.17
2022-12-08T18:39:30.226Z,65.05
2022-12-08T18:42:36.488Z,65.75
2022-12-08T18:45:42.560Z,73.09
2022-12-08T18:48:53.159Z,74.03
2022-12-08T18:52:01.124Z,66.77
2022-12-08T18:55:08.863Z,61.99
2022-12-08T18:58:14.541Z,59.51
2022-12-08T19:01:21.777Z,55.84
2022-12-08T19:04:29.661Z,54.22
2022-12-08T19:07:39.921Z,55.51
2022-12-08T19:10:45.671Z,56.38
2022-12-08T19:13:52.743Z,58.54
2022-12-08T19:16:58.540Z,69.39
2022-12-08T19:20:05.294Z,64.57
2022-12-08T19:23:15.309Z,66.31
2022-12-08T19:26:22.673Z,64.38
2022-12-08T19:29:28.139Z,65.50
2022-12-08T19:32:34.836Z,60.30
2022-12-08T19:35:40.429Z,58.62
2022-12-08T19:39:02.922Z,56.05
2022-12-08T19:42:30.341Z,61.65
2022-12-08T19:45:39.265Z,79.28
2022-12-08T19:48:44.739Z,107.99
2022-12-08T19:51:53.482Z,103.17
2022-12-08T19:55:01.604Z,114.02
2022-12-08T19:58:10.055Z,110.22
2022-12-08T20:01:17.129Z,118.36
2022-12-08T20:04:24.178Z,93.56
2022-12-08T20:07:29.702Z,89.98
2022-12-08T20:10:45.567Z,94.79
2022-12-08T20:13:51.246Z,112.88
2022-12-08T20:16:57.787Z,117.29
2022-12-08T20:20:07.071Z,124.52
2022-12-08T20:23:16.370Z,127.56
2022-12-08T20:26:26.089Z,143.28
2022-12-08T20:29:32.400Z,134.48
2022-12-08T20:32:38.094Z,132.28
2022-12-08T20:35:45.902Z,127.82
2022-12-08T20:38:54.605Z,124.52
2022-12-08T20:42:04.787Z,133.93
2022-12-08T20:45:11.787Z,119.23
2022-12-08T20:48:19.627Z,119.81
2022-12-08T20:51:31.418Z,127.48
2022-12-08T20:54:40.045Z,126.22
2022-12-08T20:57:48.291Z,113.14
2022-12-08T21:00:56.056Z,104.77
2022-12-08T21:04:02.120Z,108.04
2022-12-08T21:07:09.241Z,111.44
2022-12-08T21:10:14.996Z,105.67
2022-12-08T21:13:24.180Z,100.29
2022-12-08T21:16:29.856Z,115.19
2022-12-08T21:19:38.836Z,112.15
2022-12-08T21:22:44.699Z,99.80
2022-12-08T21:25:51.195Z,112.79
2022-12-08T21:29:01.189Z,125.92
2022-12-08T21:32:08.012Z,124.80
2022-12-08T21:35:14.586Z,127.85
2022-12-08T21:38:21.251Z,123.70
2022-12-08T21:41:39.866Z,146.94
2022-12-08T21:44:48.975Z,168.92
2022-12-08T21:47:54.948Z,181.43
2022-12-08T21:51:07.328Z,186.19
2022-12-08T21:54:18.590Z,215.55
2022-12-08T21:57:26.014Z,190.23
2022-12-08T22:00:34.624Z,169.20
2022-12-08T22:03:43.044Z,153.46
2022-12-08T22:06:49.077Z,147.62
2022-12-08T22:09:55.801Z,156.23
2022-12-08T22:13:01.750Z,157.72
2022-12-08T22:16:16.971Z,166.42
2022-12-08T22:19:24.763Z,170.42
2022-12-08T22:22:31.379Z,172.95
2022-12-08T22:25:36.989Z,160.48
2022-12-08T22:28:45.690Z,161.79
2022-12-08T22:31:54.076Z,160.99
2022-12-08T22:35:00.799Z,171.86
2022-12-08T22:38:06.362Z,174.77
2022-12-08T22:41:13.474Z,180.84
2022-12-08T22:44:19.035Z,181.05
2022-12-08T22:47:28.086Z,144.80
2022-12-08T22:50:33.583Z,158.45
2022-12-08T22:53:40.703Z,146.73
2022-12-08T22:56:46.314Z,155.78
2022-12-08T22:59:52.727Z,148.74
2022-12-08T23:03:00.878Z,142.01
2022-12-08T23:06:15.725Z,133.93
2022-12-08T23:09:21.399Z,124.11
2022-12-08T23:12:27.821Z,92.14
2022-12-08T23:15:33.539Z,73.94
2022-12-08T23:18:45.917Z,63.47
2022-12-08T23:21:51.673Z,55.82
2022-12-08T23:24:58.219Z,48.67
2022-12-08T23:28:03.832Z,45.15
2022-12-08T23:31:11.139Z,43.43
2022-12-08T23:34:19.498Z,43.02
2022-12-08T23:37:25.951Z,43.90
2022-12-08T23:40:31.492Z,40.63
2022-12-08T23:43:38.736Z,41.48
2022-12-08T23:46:44.373Z,40.49
2022-12-08T23:49:53.465Z,39.28
2022-12-08T23:52:58.977Z,34.44
2022-12-08T23:56:09.595Z,31.75
2022-12-08T23:59:15.420Z,30.63
